• Join FlightAware (Why Join?)
  • Login
  • US Flag 
08:33PM EDT


 

Airport Tracker/Info


-or-


 

Live Flight TrackerFlight Track Log ✈ N371SK ✈ 17-May-2012 ✈ KFNT - KORD

Flight Track Log - Related Links

Times and Time Zones

All times are in EDT time to prevent confusion due to time zone crossing. See the N371SK flight status page for this flight to view local times or setup timezone preferences in your user account.

Time Position Orientation Groundspeed Altitude Reporting Facility
EDT Latitude Longitude Course Direction KTS MPH feet Rate Location/Type
06:04AM 42.9575 -83.7870 264° West  Level FlightAware Approximate
06:05AM 42.9462 -83.8691 346° North  Level FlightAware Approximate
06:05AM 42.9511 -83.8708 263° West 207 238 4,000  Level Cleveland Center
06:09AM 42.9172 -84.2292 262° West 235 270 14,200 2,340 Climbing Cleveland Center
06:11AM 42.9006 -84.3947 265° West 242 278 17,800 1,980 Climbing Chicago Center
06:12AM 42.8942 -84.4889 265° West 253 291 19,800 1,080 Climbing Chicago Center
06:13AM 42.8864 -84.6000 262° West 273 314 20,000 60 Climbing Chicago Center
06:14AM 42.8744 -84.7169 261° West 300 345 20,000  Level Chicago Center
06:15AM 42.8603 -84.8344 261° West 312 359 20,000  Level Chicago Center
06:16AM 42.8461 -84.9572 262° West 324 373 20,000  Level Chicago Center
06:17AM 42.8322 -85.0883 262° West 324 373 20,000  Level Chicago Center
06:18AM 42.8200 -85.2083 262° West 324 373 20,000  Level Chicago Center
06:19AM 42.8078 -85.3308 261° West 324 373 20,000  Level Chicago Center
06:20AM 42.7931 -85.4533 258° West 329 379 20,000  Level Chicago Center
06:21AM 42.7742 -85.5736 257° West 329 379 20,000  Level Chicago Center
06:22AM 42.7531 -85.6964 255° West 334 384 20,000  Level Chicago Center
06:23AM 42.7317 -85.8078 255° West 339 390 20,000  Level Chicago Center
06:24AM 42.7081 -85.9278 257° West 339 390 20,000  Level Chicago Center
06:25AM 42.6867 -86.0506 257° West 339 390 20,000  Level Chicago Center
06:26AM 42.6650 -86.1731 256° West 339 390 20,000  Level Chicago Center
06:27AM 42.6414 -86.2986 257° West 344 396 20,000 -60 Level Chicago Center
06:28AM 42.6178 -86.4322 256° West 344 396 19,900 -900 Descending Chicago Center
06:29AM 42.5939 -86.5575 255° West 344 396 18,200 -1,740 Descending Chicago Center
06:30AM 42.5697 -86.6828 253° West 344 396 16,500 -1,800 Descending Chicago Center
06:31AM 42.5431 -86.8022 249° West 344 396 14,700 -1,860 Descending Chicago Center
06:32AM 42.5103 -86.9161 251° West 339 390 12,800 -1,800 Descending Chicago Center
06:33AM 42.4794 -87.0356 249° West 339 390 11,100 -1,020 Descending Chicago Center
06:34AM 42.4500 -87.1381 249° West 327 376 10,800 -540 Descending Chicago Center
06:35AM 42.4247 -87.2289 249° West 307 353 10,100 -420 Descending Chicago Center
06:36AM 42.3972 -87.3283 251° West 293 337 10,000 -60 Descending Chicago Center
06:37AM 42.3681 -87.4417 248° West 293 337 10,000  Level Chicago Center
06:38AM 42.3383 -87.5408 218° Southwest 293 337 10,000  Level Chicago Center
06:39AM 42.2706 -87.6131 219° Southwest 303 349 10,000 -360 Level Chicago Center
06:40AM 42.2069 -87.6819 216° Southwest 309 356 9,300 -900 Descending Chicago Center
06:41AM 42.1517 -87.7367 231° Southwest 290 334 8,200 -1,080 Descending Chicago Center
06:42AM 42.1047 -87.8161 246° West 285 328 7,200 -600 Descending Chicago Center
06:43AM 42.0747 -87.9064 263° West 271 312 7,000 -180 Descending Chicago Center
06:44AM 42.0667 -88.0000 270° West 267 307 6,900 -840 Descending Chicago TRACON
06:45AM 42.0667 -88.1000 255° West 264 304 5,500 -1,380 Descending Chicago TRACON
06:46AM 42.0500 -88.1833 228° Southwest 256 295 4,200 -780 Descending Chicago TRACON
06:47AM 42.0167 -88.2333 143° Southeast 211 243 4,000 -120 Descending Chicago TRACON
06:48AM 41.9833 -88.2000 109° East 190 219 4,000 -180 Level Chicago TRACON
06:49AM 41.9667 -88.1333 109° East 184 212 3,700 -300 Descending Chicago TRACON